createdAt,value
2022-09-28T00:02:36.061Z,11.20
2022-09-28T00:07:01.463Z,9.40
2022-09-28T00:11:28.219Z,11.13
2022-09-28T00:16:05.962Z,9.67
2022-09-28T00:20:31.241Z,11.23
2022-09-28T00:24:56.413Z,10.63
2022-09-28T00:29:31.708Z,12.73
2022-09-28T00:33:57.315Z,11.00
2022-09-28T00:38:22.485Z,10.83
2022-09-28T00:42:47.666Z,11.93
2022-09-28T00:47:49.468Z,13.37
2022-09-28T00:52:38.692Z,11.40
2022-09-28T00:57:04.917Z,14.63
2022-09-28T01:01:30.659Z,8.87
2022-09-28T01:06:00.026Z,10.07
2022-09-28T01:10:25.539Z,8.90
2022-09-28T01:14:51.994Z,10.00
2022-09-28T01:19:29.002Z,14.80
2022-09-28T01:24:34.761Z,8.97
2022-09-28T01:29:45.197Z,10.63
2022-09-28T01:34:27.560Z,9.47
2022-09-28T01:39:17.819Z,8.93
2022-09-28T01:43:51.506Z,10.70
2022-09-28T01:48:30.269Z,11.97
2022-09-28T01:53:04.583Z,11.03
2022-09-28T01:57:45.090Z,14.30
2022-09-28T02:02:16.582Z,10.40
2022-09-28T02:06:51.945Z,12.60
2022-09-28T02:11:19.999Z,10.60
2022-09-28T02:16:05.890Z,12.63
2022-09-28T02:20:34.739Z,11.00
2022-09-28T02:25:17.491Z,13.03
2022-09-28T02:29:42.893Z,13.83
2022-09-28T02:34:09.119Z,12.50
2022-09-28T02:38:34.327Z,10.33
2022-09-28T02:43:46.196Z,12.07
2022-09-28T02:49:24.374Z,11.20
2022-09-28T02:54:34.365Z,11.73
2022-09-28T02:59:48.423Z,11.87
2022-09-28T03:04:32.523Z,11.53
2022-09-28T03:09:28.662Z,11.73
2022-09-28T03:13:54.396Z,12.67
2022-09-28T03:18:19.589Z,12.80
2022-09-28T03:22:56.011Z,12.30
2022-09-28T03:27:30.335Z,11.37
2022-09-28T03:31:55.553Z,17.93
2022-09-28T03:36:20.934Z,16.33
2022-09-28T03:41:07.571Z,11.97
2022-09-28T03:45:32.813Z,12.80
2022-09-28T03:49:58.030Z,12.60
2022-09-28T03:54:23.217Z,11.43
2022-09-28T03:58:48.524Z,10.43
2022-09-28T04:03:13.801Z,16.10
2022-09-28T04:07:39.046Z,12.43
2022-09-28T04:12:04.743Z,11.90
2022-09-28T04:16:30.089Z,14.93
2022-09-28T04:21:12.953Z,16.17
2022-09-28T04:25:39.659Z,21.13
2022-09-28T04:30:05.301Z,18.43
2022-09-28T04:34:35.105Z,13.57
2022-09-28T04:39:01.613Z,16.73
2022-09-28T04:43:27.834Z,13.97
2022-09-28T04:47:53.208Z,15.73
2022-09-28T04:52:18.833Z,16.20
2022-09-28T04:56:44.115Z,20.00
2022-09-28T05:01:13.906Z,16.10
2022-09-28T05:05:47.753Z,15.83
2022-09-28T05:10:13.696Z,17.03
2022-09-28T05:14:39.010Z,19.20
2022-09-28T05:19:06.196Z,21.03
2022-09-28T05:23:32.762Z,17.47
2022-09-28T05:28:01.801Z,17.50
2022-09-28T05:32:27.166Z,16.90
2022-09-28T05:36:52.482Z,16.47
2022-09-28T05:41:17.696Z,17.73
2022-09-28T05:45:43.040Z,15.20
2022-09-28T05:50:11.713Z,17.50
2022-09-28T05:54:37.142Z,17.30
2022-09-28T05:59:05.175Z,20.13
2022-09-28T06:03:30.710Z,18.23
2022-09-28T06:07:57.982Z,20.90
2022-09-28T06:12:23.365Z,18.70
2022-09-28T06:16:48.605Z,19.77
2022-09-28T06:21:14.435Z,18.13
2022-09-28T06:25:40.203Z,17.70
2022-09-28T06:30:06.192Z,18.37
2022-09-28T06:34:31.472Z,18.20
2022-09-28T06:38:57.061Z,19.07
2022-09-28T06:43:22.303Z,17.33
2022-09-28T06:47:52.973Z,21.73
2022-09-28T06:52:18.196Z,21.17
2022-09-28T06:56:43.565Z,18.90
2022-09-28T07:01:09.637Z,23.63
2022-09-28T07:05:37.083Z,18.60
2022-09-28T07:10:02.456Z,20.10
2022-09-28T07:14:46.288Z,18.40
2022-09-28T07:19:12.800Z,21.00
2022-09-28T07:23:48.578Z,15.40
2022-09-28T07:28:17.533Z,17.23
2022-09-28T07:32:45.614Z,17.97
2022-09-28T07:37:13.295Z,17.70
2022-09-28T07:41:39.699Z,16.60
2022-09-28T07:46:09.701Z,19.93
2022-09-28T07:50:34.976Z,18.13
2022-09-28T07:55:04.606Z,25.57
2022-09-28T07:59:32.532Z,21.50
2022-09-28T08:03:57.869Z,20.00
2022-09-28T08:08:23.213Z,17.50
2022-09-28T08:12:48.533Z,20.30
2022-09-28T08:17:15.671Z,19.77
2022-09-28T08:21:46.779Z,17.80
2022-09-28T08:26:15.435Z,19.23
2022-09-28T08:30:40.939Z,16.80
2022-09-28T08:35:06.570Z,20.90
2022-09-28T08:39:32.714Z,16.10
2022-09-28T08:44:08.978Z,18.07
2022-09-28T08:49:13.465Z,16.50
2022-09-28T08:53:55.657Z,14.07
2022-09-28T08:58:31.757Z,15.70
2022-09-28T09:02:57.068Z,15.00
2022-09-28T09:07:55.563Z,15.83
2022-09-28T09:12:39.290Z,19.10
2022-09-28T09:17:29.029Z,17.90
2022-09-28T09:22:01.757Z,19.10
2022-09-28T09:26:39.472Z,16.30
2022-09-28T09:31:55.154Z,13.07
2022-09-28T09:36:33.500Z,12.77
2022-09-28T09:41:15.908Z,13.23
2022-09-28T09:46:21.312Z,13.60
2022-09-28T09:50:54.069Z,11.80
2022-09-28T09:55:32.985Z,9.93
2022-09-28T10:00:02.194Z,9.67
2022-09-28T10:04:41.410Z,11.77
2022-09-28T10:09:16.541Z,11.20
2022-09-28T10:13:42.813Z,11.33
2022-09-28T10:18:14.149Z,10.70
2022-09-28T10:22:40.237Z,8.50
2022-09-28T10:27:18.387Z,8.13
2022-09-28T10:31:49.437Z,9.73
2022-09-28T11:03:26.698Z,8.10
2022-09-28T11:59:17.884Z,10.47
2022-09-28T12:03:51.814Z,9.60
2022-09-28T13:20:04.068Z,5.73
2022-09-28T13:24:36.014Z,7.10
2022-09-28T13:29:14.241Z,6.50
2022-09-28T13:33:43.958Z,5.73
2022-09-28T13:38:18.253Z,5.43
2022-09-28T13:42:47.338Z,5.10
2022-09-28T13:47:55.272Z,7.20
2022-09-28T13:53:03.841Z,3.10
2022-09-28T13:57:43.266Z,3.83
2022-09-28T14:02:43.183Z,3.30
2022-09-28T14:07:21.728Z,5.73
2022-09-28T14:12:04.308Z,2.40
2022-09-28T14:16:32.298Z,2.87
2022-09-28T14:21:38.066Z,1.83
2022-09-28T14:26:25.303Z,2.00
2022-09-28T14:30:58.132Z,2.00
2022-09-28T14:35:40.548Z,3.10
2022-09-28T14:40:45.844Z,1.63
2022-09-28T14:45:13.866Z,1.87
2022-09-28T14:49:47.704Z,2.43
2022-09-28T14:54:19.176Z,1.30
2022-09-28T14:58:46.283Z,2.50
2022-09-28T15:03:13.055Z,1.63
2022-09-28T15:07:49.609Z,3.17
2022-09-28T15:12:20.072Z,3.20
2022-09-28T15:16:46.411Z,2.00
2022-09-28T15:21:12.454Z,1.60
2022-09-28T15:25:37.632Z,1.50
2022-09-28T15:30:25.224Z,4.67
2022-09-28T15:34:54.397Z,1.50
2022-09-28T15:39:28.824Z,4.83
2022-09-28T15:44:37.148Z,2.23
2022-09-28T15:49:04.588Z,5.00
2022-09-28T15:53:31.275Z,2.77
2022-09-28T17:30:06.704Z,7.80
2022-09-28T17:34:31.913Z,5.80
2022-09-28T17:38:57.282Z,4.57
2022-09-28T17:43:22.668Z,4.40
2022-09-28T17:47:48.028Z,7.03
2022-09-28T17:52:13.696Z,5.90
2022-09-28T17:56:39.071Z,4.63
2022-09-28T18:01:04.477Z,3.97
2022-09-28T18:05:30.324Z,4.20
2022-09-28T18:09:56.816Z,4.73
2022-09-28T18:14:22.211Z,6.23
2022-09-28T18:18:47.717Z,5.03
2022-09-28T18:23:13.316Z,5.50
2022-09-28T18:32:03.803Z,9.03
2022-09-28T18:36:35.614Z,4.70
2022-09-28T18:41:14.405Z,7.37
2022-09-28T18:45:39.837Z,7.70
2022-09-28T18:50:05.703Z,8.80
2022-09-28T18:54:30.898Z,5.67
2022-09-28T18:59:00.061Z,9.27
2022-09-28T19:03:25.463Z,6.20
2022-09-28T19:21:11.523Z,11.53
2022-09-28T19:25:36.720Z,10.33
2022-09-28T19:30:01.979Z,7.80
2022-09-28T19:47:58.681Z,11.40
2022-09-28T19:52:24.651Z,10.80
2022-09-28T19:56:50.113Z,9.07
2022-09-28T20:01:15.755Z,9.43
2022-09-28T20:05:42.395Z,13.47
2022-09-28T20:14:36.597Z,16.50
2022-09-28T20:19:07.264Z,7.40
2022-09-28T20:23:33.163Z,10.20
2022-09-28T20:27:58.695Z,10.67
2022-09-28T20:32:23.922Z,8.97
2022-09-28T20:45:40.678Z,8.80
2022-09-28T20:50:06.571Z,8.17
2022-09-28T20:54:31.761Z,9.33
2022-09-28T20:58:57.238Z,8.60
2022-09-28T21:03:22.441Z,7.30
2022-09-28T21:07:47.625Z,8.87
2022-09-28T21:12:12.843Z,8.90
2022-09-28T21:16:39.035Z,9.40
2022-09-28T21:21:07.655Z,8.30
2022-09-28T21:25:32.847Z,8.77
2022-09-28T21:29:58.067Z,8.20
2022-09-28T21:34:24.248Z,6.70
2022-09-28T21:38:49.451Z,7.53
2022-09-28T21:43:14.888Z,6.90
2022-09-28T21:47:41.310Z,8.20
2022-09-28T21:52:06.621Z,8.57
2022-09-28T21:56:31.916Z,10.17
2022-09-28T22:01:31.723Z,8.17
2022-09-28T22:05:57.067Z,9.10
2022-09-28T22:10:22.249Z,8.47
2022-09-28T22:14:47.433Z,8.00
2022-09-28T22:19:12.621Z,7.87
2022-09-28T22:23:39.118Z,6.60
2022-09-28T22:28:04.354Z,8.57
2022-09-28T22:32:29.525Z,14.03
2022-09-28T22:36:54.795Z,8.93
2022-09-28T22:41:20.870Z,9.43
2022-09-28T23:03:29.079Z,7.20
2022-09-28T23:07:54.289Z,6.47
2022-09-28T23:12:19.605Z,10.10
2022-09-28T23:38:53.171Z,6.03
2022-09-28T23:43:18.422Z,6.77
2022-09-28T23:47:43.585Z,9.97
2022-09-28T23:52:08.914Z,21.07
2022-09-28T23:56:34.189Z,10.50
